OMFJ/FJR METAR and TAF weather

Enter ICAO airport designator
Station Type Date Time Source
OMFJ METAR 2020/03/28 15:00 UTC NOAA

OMFJ 281500Z 12003KT 080V140 8000 SCT025 25/18 Q1013 A2992


Station Type Date Time Source
OMFJ Decoded METAR 2020/03/28 15:00 UTC NOAA

Fujairah, United Arab Emirates (OMFJ) 25-06N 056-20E 28M
Mar 28, 2020 - 11:00 AM EDT / 2020.03.28 1500 UTC
Wind: from the ESE (120 degrees) at 3 MPH (3 KT) (direction variable):0
Visibility: 4 mile(s):0
Sky conditions: partly cloudy
Temperature: 77 F (25 C)
Dew Point: 64 F (18 C)
Relative Humidity: 65%
Pressure (altimeter): 29.92 in. Hg (1013 hPa)
ob: OMFJ 281500Z 12003KT 080V140 8000 SCT025 25/18 Q1013 A2992
cycle: 15

Station Type Date Time Source
OMFJ TAF 2020/03/28 12:12 UTC NOAA

TAF OMFJ 281100Z 2812/2918 10007KT 8000 FEW020
BECMG 2814/2816 VRB03KT
BECMG 2900/2902 29005KT BKN020 PROB30 2900/2912 VRB10G20KT 5000 SHRA FEW035TCU
BECMG 2906/2908 08010KT

Example: see airport list